Time;durP1;ratioP1;P1;durP2;ratioP2;P2;SDS_P1;SDS_P2;PMS_P1;PMS_P2;Temp;Humidity;BMP_temperature;BMP_pressure;BME280_temperature;BME280_humidity;BME280_pressure;Samples;Min_cycle;Max_cycle;Signal;HPM_P1;HPM_P2
2023/07/20 00:00:22;;;;;;;4.07;2.00;;;14.70;99.90;;;14.12;100.00;101461.75;3964593;30;20063;-75
2023/07/20 00:02:24;;;;;;;4.25;1.63;;;14.60;99.90;;;14.13;100.00;101466.03;3961853;30;20520;-75
2023/07/20 00:04:24;;;;;;;4.55;1.65;;;14.60;99.90;;;14.11;100.00;101456.59;3959381;30;20035;-75
2023/07/20 00:06:27;;;;;;;2.92;1.60;;;14.60;99.90;;;14.07;100.00;101461.38;3960133;30;20524;-75
2023/07/20 00:08:28;;;;;;;4.75;1.88;;;14.60;99.90;;;14.05;100.00;101465.19;3960242;29;20555;-75
2023/07/20 00:10:29;;;;;;;5.28;1.90;;;14.60;99.90;;;13.94;100.00;101450.41;3980878;29;20023;-75
2023/07/20 00:12:30;;;;;;;4.53;2.10;;;14.50;99.90;;;13.97;100.00;101463.34;3978010;29;20099;-75
2023/07/20 00:14:31;;;;;;;3.05;1.48;;;14.50;99.90;;;13.93;100.00;101454.06;3980688;29;20030;-75
2023/07/20 00:16:32;;;;;;;8.10;1.92;;;14.50;99.90;;;13.87;100.00;101446.72;3978766;29;20114;-75
2023/07/20 00:18:33;;;;;;;5.47;1.60;;;14.40;99.90;;;13.86;100.00;101453.00;3960546;30;20035;-75
2023/07/20 00:20:34;;;;;;;3.55;1.80;;;14.40;99.90;;;13.84;100.00;101453.19;3972153;29;20034;-75
2023/07/20 00:22:35;;;;;;;4.40;1.90;;;14.30;99.90;;;13.79;100.00;101446.72;3987802;29;20530;-75
2023/07/20 00:24:36;;;;;;;3.88;1.52;;;14.30;99.90;;;13.76;100.00;101447.88;3995685;29;20046;-75
2023/07/20 00:26:37;;;;;;;2.58;1.75;;;14.30;99.90;;;13.71;100.00;101450.13;3964296;30;20031;-75
2023/07/20 00:28:38;;;;;;;3.40;1.70;;;14.30;99.90;;;13.74;100.00;101449.00;3984214;29;20084;-75
2023/07/20 00:30:40;;;;;;;4.43;1.83;;;14.20;99.90;;;13.74;100.00;101449.00;3983733;29;20041;-75
2023/07/20 00:32:42;;;;;;;3.72;1.75;;;14.20;99.90;;;13.68;100.00;101447.81;3973294;29;20039;-75
2023/07/20 00:34:43;;;;;;;4.35;1.55;;;14.20;99.90;;;13.74;100.00;101457.78;3979295;29;20030;-75
2023/07/20 00:36:44;;;;;;;5.15;1.58;;;14.20;99.90;;;13.68;100.00;101449.63;3995459;29;20102;-75
2023/07/20 00:38:45;;;;;;;5.32;2.03;;;14.20;99.90;;;13.74;100.00;101457.78;3975545;29;20031;-75
2023/07/20 00:40:46;;;;;;;3.08;1.67;;;14.20;99.90;;;13.77;100.00;101461.94;3978766;29;20405;-75
2023/07/20 00:42:47;;;;;;;8.00;1.40;;;14.30;99.90;;;13.76;100.00;101445.22;3995365;29;20101;-75
2023/07/20 00:44:48;;;;;;;4.60;1.73;;;14.30;99.90;;;13.71;100.00;101438.69;3989996;29;20041;-75
2023/07/20 00:46:49;;;;;;;4.40;1.80;;;14.30;99.90;;;13.76;100.00;101441.72;3994287;29;20042;-75
2023/07/20 00:48:50;;;;;;;8.25;1.98;;;14.30;99.90;;;13.77;100.00;101453.97;3979157;29;20042;-75
2023/07/20 00:50:51;;;;;;;6.05;1.98;;;14.30;99.90;;;13.76;100.00;101454.97;3979101;29;20039;-75
2023/07/20 00:52:52;;;;;;;6.05;2.47;;;14.30;99.90;;;13.69;100.00;101453.94;3995436;29;20383;-75
2023/07/20 00:54:56;;;;;;;4.20;2.08;;;14.20;99.90;;;13.68;100.00;101453.09;3979115;29;20443;-75
2023/07/20 00:56:57;;;;;;;5.60;1.80;;;14.20;99.90;;;13.60;100.00;101444.28;3978863;29;20042;-75
2023/07/20 00:58:58;;;;;;;4.20;1.67;;;14.10;99.90;;;13.61;100.00;101451.25;3979126;29;20453;-75
2023/07/20 01:00:59;;;;;;;4.28;2.45;;;14.10;99.90;;;13.62;100.00;101448.44;3979281;29;20046;-75
2023/07/20 01:03:00;;;;;;;4.45;2.20;;;14.10;99.90;;;13.59;100.00;101443.44;3995217;29;20038;-75
2023/07/20 01:05:01;;;;;;;4.40;1.98;;;14.10;99.90;;;13.58;100.00;101454.22;3996906;29;20035;-75
2023/07/20 01:07:30;;;;;;;3.38;1.95;;;14.10;99.90;;;13.53;100.00;101441.44;3998341;29;20038;-75
2023/07/20 01:09:43;;;;;;;4.35;1.90;;;14.10;99.90;;;13.49;100.00;101440.09;3998145;29;20042;-75
2023/07/20 01:12:03;;;;;;;3.67;2.47;;;14.00;99.90;;;13.42;100.00;101435.56;3966942;29;20062;-75
2023/07/20 01:14:05;;;;;;;4.93;1.88;;;14.00;99.90;;;13.40;100.00;101438.41;3982455;29;20038;-75
2023/07/20 01:16:05;;;;;;;2.42;1.70;;;13.90;99.90;;;13.37;100.00;101437.88;3996543;29;20029;-75
2023/07/20 01:18:06;;;;;;;4.25;1.98;;;13.90;99.90;;;13.34;100.00;101436.38;3997853;29;20038;-75
2023/07/20 01:20:12;;;;;;;3.05;2.05;;;13.80;99.90;;;13.28;100.00;101429.88;3981983;29;20038;-75
2023/07/20 01:22:50;;;;;;;3.50;2.03;;;13.80;99.90;;;13.32;100.00;101437.53;3995279;29;20128;-75
2023/07/20 01:25:29;;;;;;;3.70;2.28;;;13.80;99.90;;;13.29;100.00;101425.41;3986398;29;20516;-75
2023/07/20 01:28:03;;;;;;;4.38;1.65;;;13.80;99.90;;;13.26;100.00;101426.53;3972746;29;20035;-75
2023/07/20 01:30:19;;;;;;;6.77;2.30;;;13.80;99.90;;;13.24;100.00;101433.81;3987635;29;20038;-75
2023/07/20 01:32:25;;;;;;;6.40;2.60;;;13.80;99.90;;;13.20;100.00;101435.13;3997597;29;20272;-75
2023/07/20 01:34:27;;;;;;;5.18;2.13;;;13.80;99.90;;;13.19;100.00;101420.22;3981677;29;20035;-75
2023/07/20 01:36:34;;;;;;;6.00;1.80;;;13.80;99.90;;;13.20;100.00;101421.88;3977076;29;20038;-76
2023/07/20 01:38:36;;;;;;;5.35;2.05;;;13.80;99.90;;;13.23;100.00;101424.22;3990559;29;20026;-75
2023/07/20 01:40:38;;;;;;;5.90;1.88;;;13.80;99.90;;;13.25;100.00;101416.13;3997654;29;20466;-75
2023/07/20 01:42:43;;;;;;;5.47;2.30;;;13.80;99.90;;;13.26;100.00;101421.25;3980196;29;20057;-75
2023/07/20 01:44:43;;;;;;;5.20;1.88;;;13.80;99.90;;;13.25;100.00;101424.91;3977911;29;20035;-75
2023/07/20 01:46:44;;;;;;;3.95;1.70;;;13.80;99.90;;;13.22;100.00;101427.88;3991702;29;20026;-75
2023/07/20 01:48:45;;;;;;;2.92;1.73;;;13.80;99.90;;;13.17;100.00;101422.19;3979434;29;20039;-75
2023/07/20 01:50:46;;;;;;;3.28;1.65;;;13.70;99.90;;;13.13;100.00;101420.84;3980016;29;20028;-75
2023/07/20 01:52:47;;;;;;;4.47;2.30;;;13.70;99.90;;;13.12;100.00;101424.47;3981540;29;20042;-75
2023/07/20 01:54:48;;;;;;;3.45;2.10;;;13.70;99.90;;;13.13;100.00;101428.81;3965755;30;20031;-75
2023/07/20 01:56:48;;;;;;;6.53;2.33;;;13.70;99.90;;;13.14;100.00;101427.00;3989917;29;20027;-75
2023/07/20 01:58:49;;;;;;;5.18;2.28;;;13.70;99.90;;;13.10;100.00;101426.47;3980381;29;20034;-75
2023/07/20 02:00:50;;;;;;;4.88;2.30;;;13.60;99.90;;;13.09;100.00;101416.84;3997361;29;20034;-75
2023/07/20 02:02:51;;;;;;;4.43;2.05;;;13.60;99.90;;;13.06;100.00;101417.13;3975502;29;20511;-75
2023/07/20 02:04:52;;;;;;;4.38;1.80;;;13.60;99.90;;;13.05;100.00;101418.09;3981250;29;20137;-75
2023/07/20 02:06:53;;;;;;;5.97;3.03;;;13.60;99.90;;;13.04;100.00;101424.41;3981110;29;20532;-75
2023/07/20 02:08:54;;;;;;;4.80;1.80;;;13.60;99.90;;;13.00;100.00;101412.44;3992551;29;20031;-75
2023/07/20 02:10:55;;;;;;;5.80;2.00;;;13.50;99.90;;;12.97;100.00;101415.41;3977523;29;20507;-75
2023/07/20 02:12:56;;;;;;;3.85;2.40;;;13.50;99.90;;;12.96;100.00;101419.03;3989905;29;20034;-75
2023/07/20 02:14:56;;;;;;;5.05;1.90;;;13.50;99.90;;;12.94;100.00;101410.41;3991695;29;20026;-75
2023/07/20 02:16:59;;;;;;;3.15;1.58;;;13.50;99.90;;;12.92;100.00;101406.25;3976195;29;20037;-75
2023/07/20 02:19:00;;;;;;;3.80;1.98;;;13.40;99.90;;;12.89;100.00;101399.47;3990113;29;20026;-75
2023/07/20 02:21:01;;;;;;;5.68;2.17;;;13.40;99.90;;;12.90;100.00;101406.44;3976291;29;20411;-75
2023/07/20 02:23:02;;;;;;;3.25;1.95;;;13.50;99.90;;;12.92;100.00;101407.09;3992841;29;20058;-75
2023/07/20 02:25:07;;;;;;;6.13;1.95;;;13.40;99.90;;;12.92;100.00;101407.09;3991740;29;20034;-75
2023/07/20 02:27:08;;;;;;;5.40;2.80;;;13.50;99.90;;;12.92;100.00;101409.75;3990724;29;20131;-75
2023/07/20 02:29:11;;;;;;;4.75;1.85;;;13.40;99.90;;;12.89;100.00;101402.13;3991224;29;20027;-75
2023/07/20 02:31:12;;;;;;;3.58;1.90;;;13.40;99.90;;;12.93;100.00;101403.44;3973547;29;20035;-75
2023/07/20 02:33:13;;;;;;;3.83;2.05;;;13.50;99.90;;;12.90;100.00;101390.56;3987640;29;20023;-75
2023/07/20 02:35:14;;;;;;;6.07;2.28;;;13.50;99.90;;;12.90;100.00;101387.91;3991508;29;20027;-75
2023/07/20 02:37:17;;;;;;;3.55;1.75;;;13.50;99.90;;;12.94;100.00;101386.59;3976545;29;20030;-75
2023/07/20 02:39:18;;;;;;;4.15;2.28;;;13.50;99.90;;;12.89;100.00;101380.09;3989534;29;20034;-75
2023/07/20 02:41:19;;;;;;;6.15;2.88;;;13.50;99.90;;;12.92;100.00;101398.31;3976697;29;20041;-75
2023/07/20 02:43:19;;;;;;;4.80;2.30;;;13.50;99.90;;;12.88;100.00;101378.44;3989911;29;20544;-75
2023/07/20 02:45:20;;;;;;;6.05;2.08;;;13.50;99.90;;;12.90;100.00;101387.91;3970947;29;20034;-75
2023/07/20 02:47:21;;;;;;;3.80;1.98;;;13.40;99.90;;;12.92;100.00;101393.88;3986646;29;20064;-75
2023/07/20 02:49:22;;;;;;;5.32;2.08;;;13.50;99.90;;;12.94;100.00;101391.88;3974821;29;20031;-75
2023/07/20 02:51:23;;;;;;;7.15;2.50;;;13.50;99.90;;;12.98;100.00;101392.41;3991513;29;20073;-75
2023/07/20 02:53:24;;;;;;;5.32;2.38;;;13.50;99.90;;;13.01;100.00;101394.75;3989927;29;20023;-75
2023/07/20 02:55:25;;;;;;;4.28;2.38;;;13.50;99.90;;;13.04;100.00;101392.63;3972783;29;20024;-75
2023/07/20 02:57:27;;;;;;;4.63;2.20;;;13.60;99.90;;;13.06;100.00;101390.63;3986048;29;20023;-75
2023/07/20 02:59:29;;;;;;;5.13;2.58;;;13.60;99.90;;;13.15;100.00;101394.19;3973234;29;20031;-75
2023/07/20 03:01:30;;;;;;;8.20;2.38;;;13.70;99.90;;;13.19;100.00;101385.78;3992357;29;20048;-75
2023/07/20 03:03:31;;;;;;;3.78;2.60;;;13.70;99.90;;;13.25;100.00;101393.09;3991115;29;20506;-75
2023/07/20 03:05:31;;;;;;;5.25;2.13;;;13.80;99.90;;;13.28;100.00;101390.16;3991377;29;20030;-75
2023/07/20 03:07:32;;;;;;;4.20;2.25;;;13.80;99.90;;;13.30;100.00;101398.75;3990676;29;20038;-75
2023/07/20 03:09:34;;;;;;;3.47;2.00;;;13.80;99.90;;;13.28;100.00;101399.91;3990492;29;20031;-75
2023/07/20 03:11:35;;;;;;;4.32;2.35;;;13.80;99.90;;;13.22;100.00;101387.28;3975861;29;20081;-75
2023/07/20 03:13:35;;;;;;;4.10;2.13;;;13.80;99.90;;;13.22;100.00;101397.88;3971948;29;20054;-75
2023/07/20 03:15:36;;;;;;;3.85;2.20;;;13.70;99.90;;;13.14;100.00;101395.19;3989060;29;20038;-75
2023/07/20 03:17:37;;;;;;;5.28;2.35;;;13.70;99.90;;;13.15;100.00;101396.84;3975076;29;20535;-75
2023/07/20 03:19:38;;;;;;;5.57;2.88;;;13.70;99.90;;;13.13;100.00;101391.72;3972354;29;20065;-75
2023/07/20 03:21:40;;;;;;;4.88;2.45;;;13.70;99.90;;;13.10;100.00;101389.38;3986722;29;20034;-76
2023/07/20 03:23:42;;;;;;;4.47;2.42;;;13.70;99.90;;;13.06;100.00;101388.00;3986670;29;20052;-75
2023/07/20 03:25:42;;;;;;;3.15;2.13;;;13.60;99.90;;;13.01;100.00;101385.00;3974599;29;20031;-75
2023/07/20 03:27:44;;;;;;;4.57;2.55;;;13.60;99.90;;;12.97;100.00;101383.63;3978052;29;20043;-75
2023/07/20 03:29:45;;;;;;;5.50;2.35;;;13.50;99.90;;;12.89;100.00;101380.94;3989642;29;20499;-75
2023/07/20 03:31:45;;;;;;;4.13;2.50;;;13.50;99.90;;;12.91;100.00;101381.59;3977887;29;20027;-75
2023/07/20 03:33:47;;;;;;;4.45;2.25;;;13.50;99.90;;;12.90;100.00;101384.41;3988274;29;20402;-75
2023/07/20 03:35:48;;;;;;;5.18;2.20;;;13.40;99.90;;;12.89;100.00;101391.53;3992017;29;20096;-75
2023/07/20 03:37:49;;;;;;;5.60;2.60;;;13.40;99.90;;;12.89;100.00;101385.38;3975801;29;20035;-75
2023/07/20 03:39:50;;;;;;;4.50;2.20;;;13.50;99.90;;;12.88;100.00;101389.84;3990919;29;20030;-75
2023/07/20 03:41:51;;;;;;;5.50;2.58;;;13.40;99.90;;;12.91;100.00;101389.53;3973105;29;20035;-75
2023/07/20 03:43:52;;;;;;;5.70;2.40;;;13.50;99.90;;;12.94;100.00;101386.59;3988689;29;20035;-75
2023/07/20 03:45:54;;;;;;;3.88;2.38;;;13.50;99.90;;;12.92;100.00;101393.88;3990228;29;20407;-75
2023/07/20 03:47:55;;;;;;;4.20;2.72;;;13.50;99.90;;;12.91;100.00;101386.91;3974539;29;20380;-75
2023/07/20 03:49:56;;;;;;;3.83;2.58;;;13.50;99.90;;;12.95;100.00;101392.72;3987706;29;20033;-75
2023/07/20 03:51:57;;;;;;;4.85;2.38;;;13.40;99.90;;;12.94;100.00;101381.28;3989100;29;20033;-75
2023/07/20 03:53:58;;;;;;;5.97;2.17;;;13.50;99.90;;;12.94;100.00;101386.59;3957618;30;20028;-75
2023/07/20 03:55:59;;;;;;;4.97;2.90;;;13.50;99.90;;;12.96;100.00;101389.09;3974207;29;20026;-75
2023/07/20 03:58:00;;;;;;;7.72;2.40;;;13.50;99.90;;;12.95;100.00;101385.59;3972477;29;20412;-75
2023/07/20 04:00:00;;;;;;;4.65;2.42;;;13.50;99.90;;;12.96;100.00;101400.50;3991185;29;20030;-75
2023/07/20 04:02:01;;;;;;;4.25;2.30;;;13.50;99.90;;;12.93;100.00;101392.84;3991401;29;20384;-75
2023/07/20 04:04:06;;;;;;;6.30;2.47;;;13.50;99.90;;;12.91;100.00;101397.47;3978554;29;20102;-75
2023/07/20 04:06:08;;;;;;;4.50;2.60;;;13.50;99.90;;;12.98;100.00;101395.06;3989766;29;20030;-75
2023/07/20 04:08:10;;;;;;;5.75;2.75;;;13.50;99.90;;;12.99;100.00;101386.94;3973670;29;20029;-75
2023/07/20 04:10:11;;;;;;;3.80;2.50;;;13.50;99.90;;;13.08;100.00;101399.28;3976633;29;20027;-75
2023/07/20 04:12:12;;;;;;;6.35;3.00;;;13.60;99.90;;;13.20;100.00;101398.03;3976366;29;20609;-75
2023/07/20 04:14:13;;;;;;;6.70;2.70;;;13.70;99.90;;;13.29;100.00;101390.94;3971985;29;20030;-75
2023/07/20 04:16:14;;;;;;;4.88;2.20;;;13.80;99.90;;;13.39;100.00;101393.50;3992224;29;20030;-75
2023/07/20 04:18:15;;;;;;;3.83;2.30;;;13.90;99.90;;;13.40;100.00;101390.69;3990638;29;20056;-75
2023/07/20 04:20:17;;;;;;;4.13;2.40;;;14.00;99.90;;;13.52;100.00;101399.19;3987333;29;20039;-75
2023/07/20 04:22:18;;;;;;;7.43;2.58;;;14.00;99.90;;;13.56;100.00;101387.28;3989268;29;20117;-75
2023/07/20 04:24:19;;;;;;;8.65;2.70;;;14.10;99.90;;;13.61;100.00;101387.63;3972752;29;20108;-75
2023/07/20 04:26:20;;;;;;;5.20;2.80;;;14.10;99.90;;;13.65;100.00;101384.50;3991285;29;20034;-75
2023/07/20 04:28:21;;;;;;;3.28;2.03;;;14.20;99.90;;;13.65;100.00;101381.84;3990133;29;20041;-75
2023/07/20 04:30:22;;;;;;;3.08;2.42;;;14.20;99.90;;;13.64;100.00;101382.84;3976791;29;20039;-75
2023/07/20 04:32:23;;;;;;;6.13;2.25;;;14.20;99.90;;;13.61;100.00;101379.69;3977684;29;20034;-75
2023/07/20 04:34:24;;;;;;;6.22;2.90;;;14.20;99.90;;;13.63;100.00;101377.69;3986969;29;20467;-75
2023/07/20 04:36:25;;;;;;;2.95;2.30;;;14.20;99.90;;;13.64;100.00;101385.50;3991419;29;20152;-75
2023/07/20 04:38:26;;;;;;;5.22;2.60;;;14.20;99.90;;;13.69;100.00;101385.00;3988138;29;20081;-75
2023/07/20 04:40:26;;;;;;;6.28;2.60;;;14.20;99.90;;;13.72;100.00;101377.56;3993580;29;20022;-75
2023/07/20 04:42:27;;;;;;;3.20;2.65;;;14.30;99.90;;;13.79;100.00;101380.41;3977775;29;20495;-75
2023/07/20 04:44:28;;;;;;;5.05;2.35;;;14.30;99.90;;;13.80;100.00;101384.72;3994261;29;20469;-75
2023/07/20 04:46:29;;;;;;;4.38;2.50;;;14.30;99.90;;;13.75;100.00;101374.59;3992967;29;20030;-75
2023/07/20 04:48:30;;;;;;;3.30;2.00;;;14.30;99.90;;;13.80;100.00;101388.19;3975954;29;20027;-75
2023/07/20 04:50:31;;;;;;;5.22;2.10;;;14.30;99.90;;;13.82;100.00;101382.75;3994360;29;20384;-75
2023/07/20 04:52:32;;;;;;;4.47;2.78;;;14.30;99.90;;;13.86;100.00;101381.41;3978089;29;20023;-75
2023/07/20 04:54:33;;;;;;;4.65;2.25;;;14.40;99.90;;;13.92;100.00;101379.97;3992025;29;20453;-75
2023/07/20 04:56:34;;;;;;;4.70;2.40;;;14.40;99.90;;;13.94;100.00;101377.97;3990821;29;20026;-75
2023/07/20 04:58:35;;;;;;;5.13;2.60;;;14.40;99.90;;;13.95;100.00;101376.97;3977559;29;20483;-75
2023/07/20 05:00:38;;;;;;;5.35;2.40;;;14.50;99.90;;;13.96;100.00;101373.31;3978157;29;20035;-75
2023/07/20 05:02:39;;;;;;;4.00;2.33;;;14.50;99.90;;;13.90;100.00;101373.97;3991889;29;20034;-75
2023/07/20 05:04:40;;;;;;;5.93;2.95;;;14.40;99.90;;;13.82;100.00;101369.50;3993271;29;20380;-75
2023/07/20 05:06:41;;;;;;;3.10;2.10;;;14.40;99.90;;;13.75;100.00;101364.00;3965366;30;20109;-75
2023/07/20 05:08:42;;;;;;;3.80;2.45;;;14.30;99.90;;;13.67;100.00;101365.78;3992799;29;20023;-75
2023/07/20 05:10:42;;;;;;;4.90;2.10;;;14.20;99.90;;;13.63;100.00;101369.75;3977283;29;20034;-75
2023/07/20 05:12:43;;;;;;;5.13;2.42;;;14.20;99.90;;;13.61;100.00;101367.28;3974381;29;20454;-75
2023/07/20 05:14:44;;;;;;;4.38;2.58;;;14.20;99.90;;;13.57;100.00;101367.72;3994670;29;20034;-75
2023/07/20 05:16:45;;;;;;;5.30;2.47;;;14.10;99.90;;;13.55;100.00;101367.06;3987795;29;20030;-75
2023/07/20 05:18:46;;;;;;;3.85;2.45;;;14.10;99.90;;;13.52;100.00;101362.94;3977004;29;20035;-75
2023/07/20 05:20:48;;;;;;;4.78;2.20;;;14.10;99.90;;;13.54;100.00;101363.59;3974069;29;20024;-75
2023/07/20 05:22:49;;;;;;;4.25;2.67;;;14.10;99.90;;;13.56;100.00;101361.59;3991578;29;20490;-75
2023/07/20 05:24:50;;;;;;;7.53;2.72;;;14.10;99.90;;;13.64;100.00;101361.66;3991106;29;20026;-75
2023/07/20 05:26:51;;;;;;;6.55;2.60;;;14.20;99.90;;;13.73;100.00;101357.19;3992579;29;20041;-75
2023/07/20 05:28:52;;;;;;;4.68;2.97;;;14.20;99.90;;;13.83;100.00;101355.22;3974952;29;20035;-75
2023/07/20 05:30:53;;;;;;;3.88;2.78;;;14.30;99.90;;;13.98;100.00;101353.59;3963654;29;20484;-75
2023/07/20 05:32:54;;;;;;;5.57;2.83;;;14.40;99.90;;;14.15;100.00;101354.47;3992916;29;20022;-75
2023/07/20 05:34:55;;;;;;;6.10;2.60;;;14.60;99.90;;;14.31;100.00;101354.47;3976905;29;20028;-75
2023/07/20 05:36:56;;;;;;;3.60;2.92;;;14.70;99.90;;;14.54;100.00;101358.16;3980109;29;20487;-75
2023/07/20 05:38:57;;;;;;;3.65;2.60;;;14.90;99.90;;;14.73;100.00;101359.63;3989729;29;20027;-75
2023/07/20 05:41:03;;;;;;;4.88;2.63;;;15.00;99.90;;;15.00;100.00;101358.41;3979217;29;20499;-74
2023/07/20 05:43:04;;;;;;;3.55;2.58;;;15.30;99.90;;;15.22;100.00;101355.88;3975008;29;20435;-74
2023/07/20 05:45:07;;;;;;;5.38;2.55;;;15.50;99.90;;;15.43;100.00;101356.13;3990235;29;20030;-74
2023/07/20 05:47:08;;;;;;;3.85;2.70;;;15.70;99.90;;;15.58;100.00;101350.13;3991898;29;20069;-75
2023/07/20 05:49:09;;;;;;;5.63;2.53;;;15.90;99.90;;;15.69;100.00;101357.69;3991265;29;20038;-75
2023/07/20 05:51:10;;;;;;;4.13;2.42;;;16.00;99.90;;;15.73;100.00;101356.34;3987938;29;20035;-75
2023/07/20 05:53:11;;;;;;;3.95;2.28;;;16.10;99.90;;;15.73;100.00;101354.53;3978545;29;20035;-75
2023/07/20 05:55:12;;;;;;;5.15;2.30;;;16.20;99.90;;;15.76;100.00;101364.00;3975172;29;20046;-76
2023/07/20 05:57:13;;;;;;;2.72;2.10;;;16.20;99.90;;;15.75;100.00;101354.34;3986358;29;20031;-75
2023/07/20 05:59:14;;;;;;;4.78;2.70;;;16.20;99.90;;;15.78;100.00;101357.47;3993040;29;20031;-75
2023/07/20 06:01:15;;;;;;;4.20;2.50;;;16.30;99.90;;;15.79;100.00;101350.34;3974630;29;20031;-75
2023/07/20 06:03:16;;;;;;;6.35;2.30;;;16.30;99.90;;;15.86;100.00;101359.28;3992085;29;20049;-75
2023/07/20 06:05:17;;;;;;;4.90;2.17;;;16.30;99.90;;;15.83;100.00;101343.69;3992044;29;20034;-75
2023/07/20 06:07:18;;;;;;;3.72;2.22;;;16.40;99.90;;;15.85;100.00;101349.63;3978300;29;20491;-75
2023/07/20 06:09:19;;;;;;;3.83;1.83;;;16.30;99.90;;;15.81;100.00;101354.47;3975971;29;20407;-75
2023/07/20 06:11:20;;;;;;;3.95;2.00;;;16.30;99.90;;;15.80;100.00;101360.00;3993417;29;20042;-74
2023/07/20 06:13:20;;;;;;;3.33;2.00;;;16.30;99.90;;;15.76;100.00;101348.03;3993095;29;20037;-74
2023/07/20 06:15:34;;;;;;;4.10;2.05;;;16.30;99.90;;;15.81;100.00;101358.97;3991532;29;20030;-74
2023/07/20 06:17:35;;;;;;;4.10;2.30;;;16.30;99.90;;;15.83;100.00;101356.97;3977048;29;20058;-75
2023/07/20 06:19:36;;;;;;;5.93;2.40;;;16.30;99.90;;;15.88;100.00;101360.75;3993030;29;20407;-74
2023/07/20 06:21:37;;;;;;;4.18;1.95;;;16.30;99.90;;;15.97;100.00;101356.22;3961697;30;20031;-75
2023/07/20 06:23:38;;;;;;;4.68;2.38;;;16.40;99.90;;;16.06;100.00;101363.16;3977190;29;20042;-75
2023/07/20 06:25:39;;;;;;;3.45;2.00;;;16.50;99.90;;;16.14;100.00;101360.41;3976183;29;20037;-75
2023/07/20 06:27:40;;;;;;;3.85;1.90;;;16.50;99.90;;;16.20;100.00;101365.03;3975681;29;20057;-74
2023/07/20 06:29:42;;;;;;;3.70;1.83;;;16.60;99.90;;;16.29;100.00;101355.16;3943999;30;20027;-74
2023/07/20 06:31:42;;;;;;;2.72;1.73;;;16.70;99.90;;;16.39;100.00;101356.59;3975961;29;20031;-75
2023/07/20 06:33:43;;;;;;;3.90;2.20;;;16.80;99.90;;;16.56;100.00;101350.13;3950952;30;20108;-75
2023/07/20 06:35:44;;;;;;;2.90;1.98;;;16.90;99.90;;;16.76;100.00;101357.59;3979047;29;20034;-74
2023/07/20 06:37:45;;;;;;;6.85;2.80;;;17.10;99.90;;;17.01;100.00;101330.53;3978595;29;20039;-75
2023/07/20 06:39:46;;;;;;;3.40;2.15;;;17.20;99.90;;;17.34;100.00;101347.00;3965843;30;20031;-75
2023/07/20 06:41:47;;;;;;;6.60;2.70;;;17.40;99.90;;;17.37;100.00;101337.78;3981192;29;20031;-75
2023/07/20 06:43:48;;;;;;;2.50;1.80;;;17.50;99.90;;;17.42;100.00;101333.53;3965513;30;20035;-75
2023/07/20 06:45:53;;;;;;;3.85;2.03;;;17.60;99.90;;;17.37;100.00;101324.44;3981833;29;20076;-75
2023/07/20 06:47:54;;;;;;;3.78;2.25;;;17.60;99.90;;;17.46;100.00;101334.00;3979410;29;20034;-75
2023/07/20 06:49:55;;;;;;;6.60;2.53;;;17.70;99.90;;;17.38;100.00;101342.91;3965850;30;20453;-75
2023/07/20 06:51:57;;;;;;;3.65;2.25;;;17.70;99.90;;;17.41;100.00;101347.88;3981765;29;20033;-75
2023/07/20 06:53:58;;;;;;;3.80;2.08;;;17.70;99.90;;;17.47;100.00;101355.13;3977403;29;20051;-75
2023/07/20 06:55:59;;;;;;;3.83;2.33;;;17.80;99.90;;;17.42;100.00;101346.03;3969864;29;20034;-75
2023/07/20 06:57:59;;;;;;;5.70;2.30;;;17.80;99.90;;;17.38;100.00;101348.25;3980248;29;20415;-75
2023/07/20 07:00:00;;;;;;;4.35;1.67;;;17.70;99.90;;;17.39;100.00;101352.59;3981761;29;20037;-75
2023/07/20 07:02:01;;;;;;;4.28;2.05;;;17.80;99.90;;;17.44;100.00;101352.84;3976804;29;20491;-75
2023/07/20 07:04:02;;;;;;;2.67;1.70;;;17.80;99.90;;;17.55;100.00;101341.75;3981476;29;20088;-75
2023/07/20 07:06:03;;;;;;;2.97;2.20;;;17.90;99.90;;;17.70;100.00;101347.06;3962381;30;20036;-75
2023/07/20 07:08:05;;;;;;;3.55;2.15;;;18.00;99.90;;;17.69;100.00;101351.56;3969246;29;20043;-75
2023/07/20 07:10:07;;;;;;;6.07;2.13;;;18.10;99.90;;;17.75;100.00;101354.47;3981414;29;20042;-75
2023/07/20 07:12:08;;;;;;;4.85;2.60;;;18.20;99.90;;;17.85;100.00;101355.03;3981212;29;20046;-75
2023/07/20 07:14:09;;;;;;;2.45;1.95;;;18.30;99.90;;;17.84;100.00;101337.34;3981676;29;20023;-75
2023/07/20 07:16:10;;;;;;;5.57;2.72;;;18.30;99.90;;;17.96;100.00;101344.66;3975248;29;20042;-75
2023/07/20 07:18:11;;;;;;;4.72;1.80;;;18.40;99.90;;;18.05;100.00;101345.38;3949679;30;20428;-75
2023/07/20 07:20:12;;;;;;;3.40;2.00;;;18.50;99.90;;;18.23;100.00;101353.78;3978868;29;20039;-75
2023/07/20 07:22:13;;;;;;;3.97;1.90;;;18.70;99.90;;;18.37;100.00;101352.88;3977623;29;20115;-75
2023/07/20 07:24:14;;;;;;;4.82;2.05;;;18.80;99.90;;;18.47;100.00;101357.88;3974647;29;20054;-75
2023/07/20 07:26:15;;;;;;;3.40;1.75;;;18.90;99.90;;;18.51;100.00;101359.22;3995976;29;20049;-75
2023/07/20 07:28:16;;;;;;;3.42;2.00;;;19.00;99.90;;;18.43;100.00;101360.13;3979987;29;20092;-75
2023/07/20 07:30:17;;;;;;;3.58;1.95;;;18.90;99.90;;;18.56;100.00;101359.44;3980004;29;20035;-75
2023/07/20 07:32:18;;;;;;;7.38;2.47;;;19.00;99.90;;;18.62;100.00;101356.84;3979816;29;20517;-75
2023/07/20 07:34:18;;;;;;;4.68;2.65;;;19.00;99.90;;;18.78;100.00;101353.06;3994957;29;20097;-75
2023/07/20 07:36:19;;;;;;;3.47;2.33;;;19.10;99.90;;;18.83;100.00;101357.81;3996335;29;20041;-75
2023/07/20 07:38:20;;;;;;;4.50;1.90;;;19.20;99.90;;;19.00;100.00;101356.47;3996317;29;20487;-75
2023/07/20 07:40:21;;;;;;;4.88;2.13;;;19.30;99.90;;;19.20;100.00;101344.88;3992637;29;20449;-75
2023/07/20 07:42:22;;;;;;;3.83;2.08;;;19.50;99.90;;;19.31;100.00;101333.63;3993891;29;20030;-75
2023/07/20 07:44:24;;;;;;;4.55;2.13;;;19.70;99.90;;;19.50;100.00;101348.16;3996288;29;20046;-75
2023/07/20 07:46:24;;;;;;;5.97;2.10;;;19.90;99.90;;;19.73;100.00;101354.00;3991259;29;20525;-75
2023/07/20 07:48:25;;;;;;;3.75;2.17;;;20.10;99.90;;;19.92;98.53;101352.44;3976385;29;20045;-75
2023/07/20 07:50:27;;;;;;;5.25;2.25;;;20.20;99.90;;;20.11;97.24;101350.78;3985965;29;20473;-75
2023/07/20 07:52:28;;;;;;;3.00;1.40;;;20.50;99.90;;;20.11;93.66;101356.97;3986114;29;20506;-75
2023/07/20 07:54:29;;;;;;;4.43;2.10;;;20.60;99.90;;;20.06;92.85;101350.59;3992804;29;20041;-75
2023/07/20 07:56:30;;;;;;;6.15;1.70;;;20.50;99.90;;;20.27;93.23;101350.44;3990927;29;20030;-75
2023/07/20 07:58:31;;;;;;;3.92;1.75;;;20.60;99.90;;;20.52;92.01;101348.81;3979512;29;20035;-75
2023/07/20 08:00:32;;;;;;;2.65;1.73;;;20.80;99.90;;;20.57;89.64;101357.06;3995968;29;20030;-75
2023/07/20 08:02:33;;;;;;;2.67;1.75;;;20.90;99.90;;;20.51;88.51;101346.34;3964535;30;20034;-75
2023/07/20 08:04:34;;;;;;;4.25;1.40;;;20.90;99.90;;;20.60;87.96;101342.41;3992603;29;20491;-75
2023/07/20 08:06:34;;;;;;;2.58;1.33;;;21.00;99.90;;;20.57;86.74;101340.16;3995804;29;20388;-75
2023/07/20 08:08:35;;;;;;;3.60;1.80;;;21.10;99.90;;;20.74;85.59;101338.69;3996008;29;20045;-75
2023/07/20 08:10:36;;;;;;;5.85;1.70;;;21.20;99.90;;;20.77;85.82;101331.06;3994945;29;20039;-75
2023/07/20 08:12:37;;;;;;;4.25;1.60;;;21.20;99.90;;;20.74;86.36;101328.78;3979409;29;20150;-75
2023/07/20 08:14:38;;;;;;;2.83;1.85;;;21.20;99.90;;;20.88;85.55;101333.09;3995645;29;20042;-75
2023/07/20 08:16:39;;;;;;;3.17;1.85;;;21.20;99.90;;;20.92;84.98;101338.88;3988405;29;20019;-75
2023/07/20 08:18:39;;;;;;;2.58;1.30;;;21.30;99.90;;;20.86;83.16;101324.44;3987839;29;20042;-75
2023/07/20 08:20:44;;;;;;;7.13;1.83;;;21.30;99.90;;;20.88;83.28;101330.41;3979612;29;20033;-75
2023/07/20 08:22:45;;;;;;;3.17;1.17;;;21.20;99.90;;;20.95;83.44;101322.38;3992209;29;20058;-75